createdAt,value
2018-03-18T00:01:50.400Z,25.90
2018-03-18T00:04:16.758Z,26.73
2018-03-18T00:06:43.873Z,27.73
2018-03-18T00:09:10.203Z,23.50
2018-03-18T00:11:37.502Z,26.75
2018-03-18T00:14:03.963Z,26.42
2018-03-18T00:16:30.302Z,25.88
2018-03-18T00:18:56.627Z,27.60
2018-03-18T00:21:22.934Z,29.08
2018-03-18T00:23:49.233Z,25.12
2018-03-18T00:26:16.293Z,27.27
2018-03-18T00:28:43.442Z,28.73
2018-03-18T00:31:09.826Z,27.17
2018-03-18T00:33:36.159Z,27.45
2018-03-18T00:36:02.509Z,27.13
2018-03-18T00:38:28.823Z,26.52
2018-03-18T00:40:55.154Z,26.83
2018-03-18T00:43:21.587Z,26.67
2018-03-18T00:45:47.919Z,28.23
2018-03-18T00:48:14.266Z,27.20
2018-03-18T00:50:43.087Z,26.10
2018-03-18T00:53:10.184Z,28.80
2018-03-18T00:55:36.494Z,28.27
2018-03-18T00:58:02.862Z,26.10
2018-03-18T01:00:29.203Z,28.10
2018-03-18T01:02:56.518Z,28.83
2018-03-18T01:05:23.097Z,27.23
2018-03-18T01:07:50.173Z,25.80
2018-03-18T01:10:16.528Z,27.23
2018-03-18T01:12:42.840Z,29.27
2018-03-18T01:15:10.199Z,27.05
2018-03-18T01:17:36.518Z,28.48
2018-03-18T01:20:02.862Z,27.75
2018-03-18T01:22:29.162Z,28.00
2018-03-18T01:24:56.215Z,24.20
2018-03-18T01:27:23.271Z,26.20
2018-03-18T01:29:50.330Z,25.77
2018-03-18T01:32:16.667Z,27.83
2018-03-18T01:34:42.987Z,25.98
2018-03-18T01:37:09.311Z,25.95
2018-03-18T01:39:36.398Z,26.95
2018-03-18T01:42:02.790Z,26.80
2018-03-18T01:44:29.862Z,28.48
2018-03-18T01:46:56.182Z,27.52
2018-03-18T01:49:22.557Z,24.42
2018-03-18T01:51:48.870Z,27.62
2018-03-18T01:54:15.205Z,25.35
2018-03-18T01:56:41.533Z,26.30
2018-03-18T01:59:07.875Z,27.45
2018-03-18T02:01:34.207Z,27.60
2018-03-18T02:04:00.526Z,27.50
2018-03-18T02:06:26.865Z,29.77
2018-03-18T02:08:53.194Z,27.80
2018-03-18T02:11:19.522Z,27.60
2018-03-18T02:13:45.847Z,27.10
2018-03-18T02:16:12.147Z,29.65
2018-03-18T02:18:38.516Z,30.27
2018-03-18T02:21:04.839Z,28.65
2018-03-18T02:23:32.190Z,28.52
2018-03-18T02:25:58.531Z,28.65
2018-03-18T02:28:25.893Z,26.15
2018-03-18T02:30:52.211Z,28.30
2018-03-18T02:33:18.547Z,26.48
2018-03-18T02:35:45.665Z,26.70
2018-03-18T02:38:11.986Z,28.33
2018-03-18T02:40:38.292Z,29.67
2018-03-18T02:43:05.339Z,28.17
2018-03-18T02:45:32.687Z,27.05
2018-03-18T02:47:59.018Z,24.17
2018-03-18T02:50:25.358Z,27.30
2018-03-18T02:52:52.436Z,25.92
2018-03-18T02:55:19.804Z,25.95
2018-03-18T02:57:46.178Z,23.65
2018-03-18T03:00:12.517Z,24.23
2018-03-18T03:02:39.581Z,23.95
2018-03-18T03:05:06.654Z,24.60
2018-03-18T03:07:33.087Z,22.02
2018-03-18T03:09:59.411Z,23.10
2018-03-18T03:12:25.761Z,24.48
2018-03-18T03:14:52.076Z,23.52
2018-03-18T03:17:18.374Z,24.33
2018-03-18T03:19:44.686Z,26.10
2018-03-18T03:22:11.046Z,24.35
2018-03-18T03:24:38.106Z,24.90
2018-03-18T03:27:05.168Z,22.45
2018-03-18T03:29:32.227Z,23.12
2018-03-18T03:31:58.548Z,22.55
2018-03-18T03:34:24.879Z,24.35
2018-03-18T03:36:51.173Z,21.73
2018-03-18T03:39:18.233Z,23.20
2018-03-18T03:41:45.531Z,21.42
2018-03-18T03:44:11.869Z,23.42
2018-03-18T03:46:38.190Z,21.98
2018-03-18T03:49:04.534Z,23.25
2018-03-18T03:51:30.858Z,24.02
2018-03-18T03:53:57.212Z,21.87
2018-03-18T03:56:23.527Z,23.27
2018-03-18T03:58:49.858Z,22.25
2018-03-18T04:01:16.195Z,22.15
2018-03-18T04:03:42.555Z,22.50
2018-03-18T04:06:09.674Z,24.17
2018-03-18T04:08:35.982Z,22.58
2018-03-18T04:11:02.324Z,20.65
2018-03-18T04:13:28.674Z,23.48
2018-03-18T04:15:54.990Z,23.62
2018-03-18T04:18:21.388Z,21.92
2018-03-18T04:20:47.714Z,22.40
2018-03-18T04:23:14.081Z,23.40
2018-03-18T04:25:40.443Z,22.33
2018-03-18T04:28:06.752Z,22.85
2018-03-18T04:30:33.074Z,24.58
2018-03-18T04:32:59.406Z,26.23
2018-03-18T04:35:25.734Z,25.23
2018-03-18T04:37:52.058Z,23.87
2018-03-18T04:40:18.354Z,25.10
2018-03-18T04:42:44.673Z,23.70
2018-03-18T04:45:11.774Z,23.98
2018-03-18T04:47:38.094Z,24.45
2018-03-18T04:50:04.455Z,24.83
2018-03-18T04:52:30.758Z,24.25
2018-03-18T04:54:57.086Z,25.15
2018-03-18T04:57:24.441Z,22.77
2018-03-18T04:59:50.747Z,24.05
2018-03-18T05:02:17.067Z,22.62
2018-03-18T05:04:44.111Z,24.63
2018-03-18T05:07:12.155Z,25.48
2018-03-18T05:09:38.464Z,23.27
2018-03-18T05:12:04.787Z,23.83
2018-03-18T05:14:31.110Z,24.80
2018-03-18T05:16:57.430Z,24.00
2018-03-18T05:19:23.760Z,25.17
2018-03-18T05:21:50.087Z,25.05
2018-03-18T05:24:16.443Z,22.42
2018-03-18T05:26:42.762Z,25.23
2018-03-18T05:29:09.096Z,23.20
2018-03-18T05:31:35.487Z,26.10
2018-03-18T05:34:02.601Z,24.63
2018-03-18T05:36:28.958Z,24.75
2018-03-18T05:38:56.104Z,23.23
2018-03-18T05:41:23.430Z,23.62
2018-03-18T05:43:49.754Z,24.50
2018-03-18T05:46:17.085Z,23.52
2018-03-18T05:48:44.440Z,23.30
2018-03-18T05:51:10.745Z,23.08
2018-03-18T05:53:38.882Z,22.10
2018-03-18T05:56:05.276Z,22.40
2018-03-18T05:58:32.311Z,22.90
2018-03-18T06:00:58.650Z,20.92
2018-03-18T06:03:24.976Z,21.73
2018-03-18T06:05:51.412Z,23.87
2018-03-18T06:08:18.849Z,22.98
2018-03-18T06:10:45.396Z,20.80
2018-03-18T06:13:11.737Z,22.27
2018-03-18T06:15:38.172Z,24.50
2018-03-18T06:18:04.491Z,22.23
2018-03-18T06:20:30.854Z,23.38
2018-03-18T06:22:57.222Z,20.77
2018-03-18T06:25:23.554Z,21.48
2018-03-18T06:27:49.973Z,22.37
2018-03-18T06:30:16.322Z,21.05
2018-03-18T06:32:42.755Z,21.75
2018-03-18T06:35:09.140Z,23.73
2018-03-18T06:37:35.521Z,20.10
2018-03-18T06:40:02.786Z,21.45
2018-03-18T06:42:29.879Z,20.17
2018-03-18T06:44:56.216Z,20.90
2018-03-18T06:47:22.807Z,20.98
2018-03-18T06:49:49.480Z,19.42
2018-03-18T06:52:17.259Z,21.35
2018-03-18T06:54:44.456Z,22.80
2018-03-18T06:57:10.757Z,21.15
2018-03-18T06:59:37.096Z,21.58
2018-03-18T07:02:04.499Z,22.77
2018-03-18T07:04:32.527Z,21.87
2018-03-18T07:06:58.908Z,21.83
2018-03-18T07:09:25.268Z,21.73
2018-03-18T07:11:52.492Z,23.10
2018-03-18T07:14:19.602Z,22.00
2018-03-18T07:16:45.911Z,22.80
2018-03-18T07:19:12.238Z,20.80
2018-03-18T07:21:38.574Z,20.62
2018-03-18T07:24:04.914Z,20.90
2018-03-18T07:26:31.222Z,20.75
2018-03-18T07:28:57.957Z,25.50
2018-03-18T07:31:25.264Z,24.63
2018-03-18T07:33:51.586Z,21.45
2018-03-18T07:36:17.951Z,22.20
2018-03-18T07:38:45.031Z,21.60
2018-03-18T07:41:11.407Z,20.62
2018-03-18T07:43:38.486Z,22.73
2018-03-18T07:46:05.804Z,20.00
2018-03-18T07:48:32.126Z,19.70
2018-03-18T07:50:58.459Z,20.90
2018-03-18T07:53:24.767Z,28.40
2018-03-18T07:55:51.070Z,20.35
2018-03-18T07:58:17.407Z,20.85
2018-03-18T08:00:43.778Z,19.30
2018-03-18T08:03:10.074Z,18.42
2018-03-18T08:05:37.411Z,18.60
2018-03-18T08:08:03.790Z,18.65
2018-03-18T08:10:30.127Z,18.10
2018-03-18T08:12:56.448Z,19.25
2018-03-18T08:15:22.777Z,16.85
2018-03-18T08:17:49.107Z,19.30
2018-03-18T08:20:15.924Z,17.87
2018-03-18T08:22:42.239Z,20.15
2018-03-18T08:25:08.554Z,17.27
2018-03-18T08:27:35.651Z,16.85
2018-03-18T08:30:02.006Z,18.25
2018-03-18T08:32:28.315Z,19.08
2018-03-18T08:34:54.870Z,20.62
2018-03-18T08:37:21.185Z,18.52
2018-03-18T08:39:47.523Z,18.95
2018-03-18T08:42:26.154Z,18.23
2018-03-18T08:44:52.467Z,17.05
2018-03-18T08:47:18.782Z,16.83
2018-03-18T08:49:45.093Z,19.23
2018-03-18T08:52:12.135Z,18.30
2018-03-18T08:54:38.491Z,18.67
2018-03-18T08:57:04.809Z,17.75
2018-03-18T08:59:31.167Z,21.98
2018-03-18T09:01:57.484Z,18.77
2018-03-18T09:04:23.882Z,25.52
2018-03-18T09:06:50.947Z,23.60
2018-03-18T09:09:17.282Z,21.17
2018-03-18T09:11:43.583Z,29.42
2018-03-18T09:14:10.666Z,29.00
2018-03-18T09:16:37.020Z,25.67
2018-03-18T09:19:03.334Z,19.52
2018-03-18T09:21:29.699Z,17.90
2018-03-18T09:23:56.032Z,18.20
2018-03-18T09:26:22.368Z,17.92
2018-03-18T09:28:48.690Z,17.95
2018-03-18T09:31:15.012Z,17.87
2018-03-18T09:33:41.342Z,19.85
2018-03-18T09:36:08.703Z,17.60
2018-03-18T09:38:35.163Z,19.27
2018-03-18T09:41:01.494Z,18.05
2018-03-18T09:43:28.543Z,18.70
2018-03-18T09:45:54.878Z,17.90
2018-03-18T09:48:21.224Z,18.37
2018-03-18T09:50:49.539Z,19.48
2018-03-18T09:53:15.879Z,18.90
2018-03-18T09:55:43.440Z,16.15
2018-03-18T09:58:09.763Z,18.40
2018-03-18T10:00:37.119Z,18.60
2018-03-18T10:03:03.430Z,16.85
2018-03-18T10:05:29.752Z,17.98
2018-03-18T10:07:56.079Z,15.07
2018-03-18T10:10:23.127Z,17.17
2018-03-18T10:12:50.201Z,17.67
2018-03-18T10:15:16.539Z,30.67
2018-03-18T10:17:42.870Z,24.77
2018-03-18T10:20:09.189Z,15.57
2018-03-18T10:22:36.524Z,18.77
2018-03-18T10:25:03.610Z,18.50
2018-03-18T10:27:29.919Z,17.10
2018-03-18T10:29:56.235Z,17.75
2018-03-18T10:32:22.556Z,16.65
2018-03-18T10:34:49.675Z,17.08
2018-03-18T10:37:15.997Z,18.05
2018-03-18T10:39:42.348Z,18.85
2018-03-18T10:42:08.667Z,27.10
2018-03-18T10:44:34.989Z,22.05
2018-03-18T10:47:01.289Z,31.90
2018-03-18T10:49:27.610Z,20.00
2018-03-18T10:51:53.978Z,31.65
2018-03-18T10:54:20.282Z,29.33
2018-03-18T10:56:47.255Z,20.30
2018-03-18T10:59:14.624Z,45.05
2018-03-18T11:01:48.549Z,23.52
2018-03-18T11:04:16.563Z,22.10
2018-03-18T11:06:42.946Z,19.05
2018-03-18T11:09:09.262Z,18.95
2018-03-18T11:11:37.092Z,17.58
2018-03-18T11:14:03.467Z,14.95
2018-03-18T11:16:29.786Z,15.65
2018-03-18T11:18:56.110Z,21.60
2018-03-18T11:21:22.470Z,18.08
2018-03-18T11:23:49.935Z,16.55
2018-03-18T11:26:17.042Z,15.60
2018-03-18T11:28:43.359Z,15.77
2018-03-18T11:31:09.670Z,16.33
2018-03-18T11:33:36.015Z,18.80
2018-03-18T11:36:02.355Z,14.73
2018-03-18T11:38:28.738Z,17.20
2018-03-18T11:40:55.790Z,15.30
2018-03-18T11:43:22.846Z,16.60
2018-03-18T11:45:50.924Z,18.50
2018-03-18T11:48:17.244Z,17.42
2018-03-18T11:50:45.971Z,16.23
2018-03-18T11:53:12.301Z,15.90
2018-03-18T11:55:38.611Z,15.40
2018-03-18T11:58:04.947Z,16.15
2018-03-18T12:00:31.262Z,15.30
2018-03-18T12:02:57.566Z,16.00
2018-03-18T12:05:23.940Z,15.05
2018-03-18T12:07:50.256Z,15.98
2018-03-18T12:10:16.565Z,15.55
2018-03-18T12:12:43.614Z,15.88
2018-03-18T12:15:11.167Z,16.25
2018-03-18T12:17:38.227Z,19.30
2018-03-18T12:20:05.332Z,16.60
2018-03-18T12:22:31.676Z,16.87
2018-03-18T12:24:57.986Z,16.80
2018-03-18T12:27:24.295Z,15.63
2018-03-18T12:29:51.890Z,16.10
2018-03-18T12:32:18.252Z,16.00
2018-03-18T12:34:45.446Z,16.45
2018-03-18T12:37:11.759Z,17.50
2018-03-18T12:39:50.287Z,17.00
2018-03-18T12:42:29.012Z,16.70
2018-03-18T12:44:55.318Z,15.85
2018-03-18T12:47:21.645Z,16.25
2018-03-18T12:49:48.723Z,16.60
2018-03-18T12:52:15.035Z,16.02
2018-03-18T12:54:41.402Z,16.02
2018-03-18T12:57:07.731Z,17.42
2018-03-18T12:59:34.049Z,15.23
2018-03-18T13:02:00.383Z,16.87
2018-03-18T13:04:26.716Z,16.33
2018-03-18T13:06:53.114Z,15.63
2018-03-18T13:09:19.423Z,17.15
2018-03-18T13:11:47.474Z,16.52
2018-03-18T13:14:15.275Z,16.58
2018-03-18T13:16:42.351Z,16.15
2018-03-18T13:19:08.697Z,15.05
2018-03-18T13:21:35.991Z,16.33
2018-03-18T13:24:03.799Z,15.10
2018-03-18T13:26:30.106Z,17.92
2018-03-18T13:28:56.422Z,17.52
2018-03-18T13:31:23.475Z,16.60
2018-03-18T13:33:50.538Z,16.20
2018-03-18T13:36:16.855Z,14.52
2018-03-18T13:38:43.918Z,17.27
2018-03-18T13:41:10.286Z,14.68
2018-03-18T13:43:36.721Z,15.77
2018-03-18T13:46:03.056Z,17.42
2018-03-18T13:48:29.390Z,16.02
2018-03-18T13:50:55.715Z,17.60
2018-03-18T13:53:22.775Z,15.63
2018-03-18T13:55:49.153Z,16.55
2018-03-18T13:58:16.525Z,17.20
2018-03-18T14:00:42.853Z,18.12
2018-03-18T14:03:09.178Z,16.05
2018-03-18T14:05:35.515Z,16.27
2018-03-18T14:08:01.876Z,17.45
2018-03-18T14:10:28.186Z,18.45
2018-03-18T14:12:55.528Z,16.77
2018-03-18T14:15:21.839Z,17.42
2018-03-18T14:17:48.927Z,17.62
2018-03-18T14:20:15.266Z,17.70
2018-03-18T14:22:41.615Z,18.35
2018-03-18T14:25:07.942Z,15.65
2018-03-18T14:27:34.271Z,17.37
2018-03-18T14:30:01.693Z,17.73
2018-03-18T14:32:29.026Z,15.80
2018-03-18T14:34:56.328Z,17.70
2018-03-18T14:37:22.667Z,17.45
2018-03-18T14:39:48.997Z,18.00
2018-03-18T14:42:15.319Z,16.45
2018-03-18T14:44:41.630Z,16.35
2018-03-18T14:47:07.966Z,16.87
2018-03-18T14:49:34.285Z,16.25
2018-03-18T14:52:00.599Z,17.85
2018-03-18T14:54:28.648Z,18.50
2018-03-18T14:56:56.042Z,20.75
2018-03-18T14:59:23.098Z,17.45
2018-03-18T15:01:50.176Z,18.40
2018-03-18T15:04:17.502Z,20.65
2018-03-18T15:06:44.570Z,20.20
2018-03-18T15:09:10.899Z,35.45
2018-03-18T15:11:37.211Z,26.62
2018-03-18T15:14:04.943Z,19.92
2018-03-18T15:16:31.269Z,17.45
2018-03-18T15:18:57.602Z,19.30
2018-03-18T15:21:23.939Z,20.67
2018-03-18T15:23:50.244Z,16.95
2018-03-18T15:26:16.566Z,16.50
2018-03-18T15:28:43.923Z,16.00
2018-03-18T15:31:11.283Z,17.15
2018-03-18T15:33:37.603Z,19.67
2018-03-18T15:36:03.934Z,16.52
2018-03-18T15:38:30.292Z,17.23
2018-03-18T15:40:58.106Z,15.82
2018-03-18T15:43:24.470Z,19.17
2018-03-18T15:45:50.768Z,15.52
2018-03-18T15:48:17.084Z,17.25
2018-03-18T15:50:44.141Z,15.85
2018-03-18T15:53:10.476Z,18.45
2018-03-18T15:55:36.834Z,17.62
2018-03-18T15:58:03.174Z,16.00
2018-03-18T16:00:29.596Z,18.23
2018-03-18T16:02:55.855Z,16.62
2018-03-18T16:05:22.195Z,18.40
2018-03-18T16:07:48.527Z,17.02
2018-03-18T16:10:14.879Z,18.80
2018-03-18T16:12:41.194Z,18.20
2018-03-18T16:15:08.263Z,18.15
2018-03-18T16:17:35.326Z,18.55
2018-03-18T16:20:02.851Z,16.95
2018-03-18T16:22:33.560Z,19.50
2018-03-18T16:25:00.651Z,24.90
2018-03-18T16:27:26.975Z,16.55
2018-03-18T16:30:06.571Z,18.25
2018-03-18T16:32:33.030Z,18.62
2018-03-18T16:35:00.084Z,17.20
2018-03-18T16:37:28.173Z,16.95
2018-03-18T16:39:54.518Z,16.98
2018-03-18T16:42:20.842Z,17.08
2018-03-18T16:44:47.188Z,18.12
2018-03-18T16:47:13.498Z,17.37
